createdAt,value
2019-06-15T00:01:24.203Z,16.52
2019-06-15T00:02:17.799Z,16.52
2019-06-15T00:03:17.789Z,16.59
2019-06-15T00:04:21.444Z,16.47
2019-06-15T00:05:22.170Z,16.52
2019-06-15T00:06:25.842Z,16.52
2019-06-15T00:07:55.505Z,16.52
2019-06-15T00:08:18.734Z,16.51
2019-06-15T00:13:22.974Z,16.45
2019-06-15T00:14:25.687Z,16.48
2019-06-15T00:15:28.454Z,16.50
2019-06-15T00:18:31.426Z,16.51
2019-06-15T00:20:02.160Z,16.48
2019-06-15T00:21:04.815Z,16.55
2019-06-15T00:22:56.951Z,16.45
2019-06-15T00:24:34.624Z,16.41
2019-06-15T00:24:50.662Z,16.48
2019-06-15T00:26:22.032Z,16.47
2019-06-15T00:26:50.663Z,16.47
2019-06-15T00:27:57.526Z,16.50
2019-06-15T00:28:55.192Z,16.51
2019-06-15T00:29:56.034Z,16.50
2019-06-15T00:34:12.575Z,16.33
2019-06-15T00:35:03.744Z,16.22
2019-06-15T00:38:48.748Z,16.07
2019-06-15T00:39:40.968Z,15.93
2019-06-15T00:44:23.104Z,15.51
2019-06-15T00:45:47.407Z,15.48
2019-06-15T00:46:47.236Z,15.28
2019-06-15T00:48:10.886Z,15.16
2019-06-15T00:48:28.788Z,15.01
2019-06-15T00:49:23.063Z,14.95
2019-06-15T00:50:24.178Z,14.91
2019-06-15T00:51:23.239Z,14.85
2019-06-15T00:52:49.580Z,14.75
2019-06-15T00:54:02.413Z,14.75
2019-06-15T00:54:22.999Z,14.63
2019-06-15T00:55:29.868Z,14.61
2019-06-15T00:57:07.634Z,14.66
2019-06-15T00:58:01.261Z,14.63
2019-06-15T00:59:07.219Z,14.52
2019-06-15T00:59:23.957Z,14.45
2019-06-15T01:02:54.616Z,14.24
2019-06-15T01:03:50.779Z,14.17
2019-06-15T01:05:35.044Z,14.08
2019-06-15T01:06:10.222Z,13.98
2019-06-15T01:07:05.987Z,13.86
2019-06-15T01:09:07.612Z,13.91
2019-06-15T01:10:35.196Z,13.79
2019-06-15T01:12:33.487Z,13.96
2019-06-15T01:14:05.651Z,13.90
2019-06-15T01:14:35.756Z,13.93
2019-06-15T01:15:26.869Z,13.98
2019-06-15T01:16:28.560Z,13.91
2019-06-15T01:20:42.747Z,14.09
2019-06-15T01:21:56.995Z,14.09
2019-06-15T01:25:34.091Z,14.19
2019-06-15T01:26:50.696Z,14.41
2019-06-15T01:30:36.146Z,15.12
2019-06-15T01:31:03.155Z,15.31
2019-06-15T01:33:33.265Z,15.68
2019-06-15T01:35:14.199Z,15.78
2019-06-15T01:39:42.165Z,16.23
2019-06-15T01:40:47.016Z,16.32
2019-06-15T01:41:42.111Z,16.47
2019-06-15T01:42:42.107Z,16.54
2019-06-15T01:43:50.067Z,16.65
2019-06-15T01:45:02.422Z,16.75
2019-06-15T01:45:42.061Z,16.65
2019-06-15T01:46:42.049Z,16.52
2019-06-15T01:47:42.050Z,16.55
2019-06-15T01:48:42.025Z,16.59
2019-06-15T01:49:42.015Z,16.60
2019-06-15T01:50:42.005Z,16.67
2019-06-15T01:51:41.994Z,16.73
2019-06-15T01:52:41.991Z,16.66
2019-06-15T01:53:41.972Z,16.73
2019-06-15T01:54:42.017Z,16.77
2019-06-15T01:55:41.955Z,16.78
2019-06-15T01:56:41.937Z,16.72
2019-06-15T01:57:41.938Z,16.67
2019-06-15T01:58:41.986Z,16.84
2019-06-15T01:59:41.910Z,17.02
2019-06-15T02:00:41.898Z,17.15
2019-06-15T02:01:41.889Z,17.28
2019-06-15T02:02:41.932Z,17.38
2019-06-15T02:03:41.861Z,17.45
2019-06-15T02:04:41.852Z,17.47
2019-06-15T02:05:41.847Z,17.51
2019-06-15T02:06:41.832Z,17.58
2019-06-15T02:07:41.828Z,17.60
2019-06-15T02:08:41.866Z,17.65
2019-06-15T02:09:41.795Z,17.58
2019-06-15T02:10:41.783Z,17.70
2019-06-15T02:11:41.774Z,17.60
2019-06-15T02:12:42.049Z,17.68
2019-06-15T02:13:41.750Z,17.76
2019-06-15T02:14:41.793Z,17.71
2019-06-15T02:15:41.729Z,17.86
2019-06-15T02:16:41.723Z,17.95
2019-06-15T02:17:41.710Z,18.04
2019-06-15T02:18:41.713Z,18.09
2019-06-15T02:19:41.690Z,18.02
2019-06-15T02:20:41.733Z,18.11
2019-06-15T02:21:41.677Z,17.99
2019-06-15T02:22:41.856Z,18.04
2019-06-15T02:23:41.652Z,18.02
2019-06-15T02:24:41.672Z,18.09
2019-06-15T02:25:41.628Z,18.13
2019-06-15T02:26:41.616Z,18.13
2019-06-15T02:27:41.690Z,18.13
2019-06-15T02:28:41.620Z,18.20
2019-06-15T02:29:41.579Z,18.20
2019-06-15T02:30:41.584Z,18.21
2019-06-15T02:31:41.561Z,18.21
2019-06-15T02:32:41.599Z,18.25
2019-06-15T02:33:41.549Z,18.25
2019-06-15T02:34:41.526Z,18.29
2019-06-15T02:35:41.516Z,18.26
2019-06-15T02:36:41.505Z,18.35
2019-06-15T02:37:41.532Z,18.39
2019-06-15T02:38:41.493Z,18.46
2019-06-15T02:39:41.513Z,18.36
2019-06-15T02:40:41.463Z,18.29
2019-06-15T02:41:41.454Z,18.26
2019-06-15T02:42:41.441Z,18.29
2019-06-15T02:43:41.443Z,18.17
2019-06-15T02:44:41.418Z,18.25
2019-06-15T02:45:41.430Z,18.25
2019-06-15T02:46:41.399Z,18.29
2019-06-15T02:47:41.389Z,18.21
2019-06-15T02:48:41.388Z,18.25
2019-06-15T02:49:41.365Z,18.23
2019-06-15T02:50:41.371Z,18.17
2019-06-15T02:51:41.346Z,18.16
2019-06-15T02:52:41.400Z,18.19
2019-06-15T02:53:41.336Z,18.21
2019-06-15T02:54:41.317Z,18.21
2019-06-15T02:55:50.246Z,18.21
2019-06-15T02:56:42.288Z,18.20
2019-06-15T02:57:41.276Z,18.16
2019-06-15T02:58:41.317Z,18.14
2019-06-15T02:59:41.264Z,18.13
2019-06-15T03:00:41.244Z,18.13
2019-06-15T03:01:41.234Z,18.05
2019-06-15T03:02:41.223Z,18.01
2019-06-15T03:03:41.223Z,18.02
2019-06-15T03:04:41.203Z,17.95
2019-06-15T03:05:41.228Z,17.83
2019-06-15T03:06:41.180Z,17.80
2019-06-15T03:07:41.175Z,17.76
2019-06-15T03:08:41.168Z,17.63
2019-06-15T03:09:41.150Z,17.62
2019-06-15T03:10:41.139Z,17.54
2019-06-15T03:11:41.169Z,17.47
2019-06-15T03:12:41.120Z,17.46
2019-06-15T03:13:41.116Z,17.40
2019-06-15T03:14:41.095Z,17.28
2019-06-15T03:15:41.090Z,17.22
2019-06-15T03:16:41.074Z,17.32
2019-06-15T03:17:41.109Z,17.05
2019-06-15T03:18:41.067Z,17.12
2019-06-15T03:19:41.045Z,17.03
2019-06-15T03:20:41.030Z,17.07
2019-06-15T03:21:41.034Z,17.02
2019-06-15T03:22:41.014Z,16.99
2019-06-15T03:23:41.009Z,16.98
2019-06-15T03:24:41.039Z,17.00
2019-06-15T03:25:40.980Z,16.95
2019-06-15T03:26:40.969Z,17.00
2019-06-15T03:27:40.966Z,16.92
2019-06-15T03:28:40.963Z,16.88
2019-06-15T03:29:40.935Z,16.90
2019-06-15T03:30:40.987Z,16.95
2019-06-15T03:31:40.919Z,16.96
2019-06-15T03:32:40.908Z,16.88
2019-06-15T03:33:40.894Z,17.00
2019-06-15T03:34:40.891Z,16.99
2019-06-15T03:35:40.879Z,16.96
2019-06-15T03:36:40.910Z,17.00
2019-06-15T03:37:40.852Z,17.02
2019-06-15T03:38:40.850Z,17.06
2019-06-15T03:39:40.843Z,17.00
2019-06-15T03:40:40.818Z,16.96
2019-06-15T03:41:40.806Z,16.92
2019-06-15T03:42:40.835Z,17.03
2019-06-15T03:43:40.785Z,17.12
2019-06-15T03:44:40.790Z,17.03
2019-06-15T03:45:40.763Z,17.06
2019-06-15T03:46:40.756Z,17.06
2019-06-15T03:47:40.749Z,17.05
2019-06-15T03:48:40.785Z,17.05
2019-06-15T03:49:40.740Z,17.06
2019-06-15T03:50:40.712Z,16.99
2019-06-15T03:51:40.698Z,17.02
2019-06-15T03:52:40.690Z,17.02
2019-06-15T03:53:40.685Z,17.07
2019-06-15T03:54:40.761Z,17.14
2019-06-15T03:55:40.655Z,17.05
2019-06-15T03:56:40.661Z,17.15
2019-06-15T03:57:40.635Z,17.17
2019-06-15T03:58:40.631Z,17.15
2019-06-15T03:59:40.624Z,17.18
2019-06-15T04:00:40.637Z,17.25
2019-06-15T04:01:40.595Z,17.24
2019-06-15T04:02:40.589Z,17.25
2019-06-15T04:03:40.583Z,17.30
2019-06-15T04:04:40.573Z,17.25
2019-06-15T04:05:40.558Z,17.28
2019-06-15T04:06:40.574Z,17.25
2019-06-15T04:07:40.530Z,17.32
2019-06-15T04:08:40.523Z,17.35
2019-06-15T04:09:40.519Z,17.39
2019-06-15T04:10:40.498Z,17.47
2019-06-15T04:11:40.488Z,17.49
2019-06-15T04:12:40.510Z,17.46
2019-06-15T04:13:40.463Z,17.54
2019-06-15T04:14:40.465Z,17.62
2019-06-15T04:15:40.445Z,17.68
2019-06-15T04:16:40.433Z,17.76
2019-06-15T04:17:40.422Z,17.87
2019-06-15T04:18:40.475Z,17.94
2019-06-15T04:19:40.414Z,17.87
2019-06-15T04:20:40.391Z,17.87
2019-06-15T04:21:40.379Z,17.84
2019-06-15T04:22:40.367Z,17.84
2019-06-15T04:23:40.363Z,17.89
2019-06-15T04:24:40.405Z,17.84
2019-06-15T04:25:40.346Z,17.89
2019-06-15T04:26:40.331Z,17.81
2019-06-15T04:27:40.330Z,17.77
2019-06-15T04:28:40.308Z,17.68
2019-06-15T04:29:40.384Z,17.77
2019-06-15T04:30:40.285Z,17.77
2019-06-15T04:31:40.281Z,17.73
2019-06-15T04:32:40.290Z,17.65
2019-06-15T04:33:40.251Z,17.65
2019-06-15T04:34:40.257Z,17.65
2019-06-15T04:35:40.236Z,17.66
2019-06-15T04:36:40.226Z,17.66
2019-06-15T04:37:40.209Z,17.62
2019-06-15T04:38:40.265Z,17.65
2019-06-15T04:39:40.196Z,17.63
2019-06-15T04:40:40.178Z,17.63
2019-06-15T04:41:40.168Z,17.66
2019-06-15T04:42:40.172Z,17.70
2019-06-15T04:43:40.150Z,17.65
2019-06-15T04:44:40.202Z,17.76
2019-06-15T04:45:40.132Z,17.70
2019-06-15T04:46:40.113Z,17.81
2019-06-15T04:47:40.106Z,17.83
2019-06-15T04:48:40.100Z,17.96
2019-06-15T04:49:40.091Z,17.95
2019-06-15T04:50:40.078Z,17.98
2019-06-15T04:51:40.119Z,18.05
2019-06-15T04:52:40.058Z,18.04
2019-06-15T04:53:40.046Z,18.11
2019-06-15T04:54:40.086Z,18.19
2019-06-15T04:55:40.018Z,18.29
2019-06-15T04:56:50.508Z,18.38
2019-06-15T04:57:40.991Z,18.69
2019-06-15T04:58:39.991Z,18.78
2019-06-15T04:59:40.014Z,18.72
2019-06-15T05:00:39.978Z,18.86
2019-06-15T05:01:39.949Z,19.13
2019-06-15T05:02:39.940Z,19.20
2019-06-15T05:03:39.929Z,19.16
2019-06-15T05:04:39.913Z,19.13
2019-06-15T05:05:39.955Z,19.07
2019-06-15T05:06:39.892Z,19.10
2019-06-15T05:07:39.880Z,19.06
2019-06-15T05:08:39.870Z,19.16
2019-06-15T05:09:39.859Z,19.15
2019-06-15T05:10:39.858Z,19.30
2019-06-15T05:11:39.914Z,19.23
2019-06-15T05:12:39.834Z,19.15
2019-06-15T05:13:39.934Z,19.10
2019-06-15T05:14:39.809Z,19.07
2019-06-15T05:15:39.812Z,19.12
2019-06-15T05:16:39.783Z,19.15
2019-06-15T05:17:39.810Z,19.15
2019-06-15T05:18:39.765Z,19.07
2019-06-15T05:19:39.749Z,19.13
2019-06-15T05:20:39.750Z,19.09
2019-06-15T05:21:39.735Z,19.21
2019-06-15T05:22:39.720Z,19.25
2019-06-15T05:23:39.719Z,19.34
2019-06-15T05:24:39.699Z,19.49
2019-06-15T05:25:39.762Z,19.52
2019-06-15T05:26:39.682Z,19.50
2019-06-15T05:27:39.685Z,19.65
2019-06-15T05:28:39.652Z,19.68
2019-06-15T05:29:39.640Z,19.67
2019-06-15T05:30:39.649Z,19.57
2019-06-15T05:31:39.673Z,19.71
2019-06-15T05:32:39.613Z,19.75
2019-06-15T05:33:39.603Z,19.62
2019-06-15T05:34:39.597Z,19.47
2019-06-15T05:35:39.592Z,19.31
2019-06-15T05:36:39.565Z,19.15
2019-06-15T05:37:39.554Z,19.24
2019-06-15T05:38:39.580Z,19.13
2019-06-15T05:39:39.539Z,19.10
2019-06-15T05:40:39.564Z,18.97
2019-06-15T05:41:39.515Z,18.93
2019-06-15T05:42:39.506Z,18.94
2019-06-15T05:43:39.494Z,18.82
2019-06-15T05:44:39.524Z,18.57
2019-06-15T05:45:39.502Z,18.42
2019-06-15T05:46:39.467Z,18.39
2019-06-15T05:47:39.454Z,18.39
2019-06-15T05:48:39.436Z,18.34
2019-06-15T05:49:39.426Z,18.29
2019-06-15T05:50:39.434Z,18.32
2019-06-15T05:51:39.404Z,18.64
2019-06-15T05:52:39.446Z,19.05
2019-06-15T05:53:39.395Z,18.82
2019-06-15T05:54:39.372Z,18.78
2019-06-15T05:55:39.373Z,18.93
2019-06-15T05:56:48.446Z,19.52
2019-06-15T05:57:39.340Z,20.56
2019-06-15T05:58:39.329Z,21.13
2019-06-15T05:59:39.315Z,21.51
2019-06-15T06:00:39.324Z,21.08
2019-06-15T06:01:39.293Z,20.97
2019-06-15T06:02:39.286Z,20.96
2019-06-15T06:03:39.281Z,20.93
2019-06-15T06:04:39.261Z,21.61
2019-06-15T06:05:39.262Z,22.04
2019-06-15T06:06:39.240Z,22.52
2019-06-15T06:07:39.229Z,23.00
2019-06-15T06:08:39.224Z,22.94
2019-06-15T06:09:39.207Z,22.15
2019-06-15T06:10:39.206Z,22.02
2019-06-15T06:11:39.185Z,21.64
2019-06-15T06:12:39.174Z,21.96
2019-06-15T06:13:39.162Z,22.21
2019-06-15T06:14:39.178Z,22.17
2019-06-15T06:15:39.152Z,21.79
2019-06-15T06:16:39.131Z,22.11
2019-06-15T06:17:40.503Z,22.09
2019-06-15T06:18:39.110Z,22.41
2019-06-15T06:19:39.096Z,22.79
2019-06-15T06:20:39.107Z,22.91
2019-06-15T06:21:39.076Z,23.12
2019-06-15T06:22:39.067Z,23.49
2019-06-15T06:23:39.053Z,23.75
2019-06-15T06:24:39.043Z,23.37
2019-06-15T06:25:39.040Z,22.69
2019-06-15T06:26:39.028Z,22.38
2019-06-15T06:27:39.010Z,21.68
2019-06-15T06:28:38.999Z,21.22
2019-06-15T06:29:38.988Z,21.06
2019-06-15T06:30:38.988Z,21.00
2019-06-15T06:31:38.968Z,20.78
2019-06-15T06:32:38.967Z,21.08
2019-06-15T06:33:38.950Z,21.05
2019-06-15T06:34:38.936Z,21.37
2019-06-15T06:35:38.951Z,21.63
2019-06-15T06:36:38.915Z,21.46
2019-06-15T06:37:38.905Z,21.21
2019-06-15T06:38:38.898Z,21.21
2019-06-15T06:39:38.880Z,21.15
2019-06-15T06:40:38.868Z,21.03
2019-06-15T06:41:38.868Z,21.74
2019-06-15T06:42:38.845Z,22.46
2019-06-15T06:43:38.835Z,23.06
2019-06-15T06:44:38.840Z,23.53
2019-06-15T06:45:38.812Z,23.57
2019-06-15T06:46:38.812Z,23.93
2019-06-15T06:47:38.790Z,24.33
2019-06-15T06:48:38.783Z,24.44
2019-06-15T06:49:38.768Z,23.74
2019-06-15T06:50:41.257Z,23.62
2019-06-15T06:51:38.765Z,23.93
2019-06-15T06:52:38.736Z,23.53
2019-06-15T06:53:38.727Z,23.01
2019-06-15T06:54:38.718Z,22.69
2019-06-15T06:55:38.704Z,22.15
2019-06-15T06:56:38.711Z,21.83
2019-06-15T06:57:51.325Z,21.30
2019-06-15T06:58:39.671Z,20.97
2019-06-15T06:59:38.661Z,20.68
2019-06-15T07:00:38.649Z,20.50
2019-06-15T07:01:38.648Z,20.23
2019-06-15T07:02:38.637Z,20.38
2019-06-15T07:03:38.616Z,20.34
2019-06-15T07:04:38.606Z,20.31
2019-06-15T07:05:38.594Z,20.48
2019-06-15T07:06:38.593Z,20.40
2019-06-15T07:07:38.573Z,20.38
2019-06-15T07:08:38.573Z,20.35
2019-06-15T07:09:38.552Z,20.31
2019-06-15T07:10:38.544Z,20.34
2019-06-15T07:11:38.583Z,20.40
2019-06-15T07:12:38.525Z,20.57
2019-06-15T07:13:38.512Z,20.58
2019-06-15T07:14:38.507Z,20.60
2019-06-15T07:15:38.489Z,20.71
2019-06-15T07:16:38.488Z,20.76
2019-06-15T07:17:38.467Z,20.79
2019-06-15T07:18:38.455Z,21.12
2019-06-15T07:19:38.446Z,21.06
2019-06-15T07:20:38.444Z,20.96
2019-06-15T07:21:38.431Z,20.97
2019-06-15T07:22:38.412Z,20.78
2019-06-15T07:23:38.402Z,20.54
2019-06-15T07:24:38.411Z,20.60
2019-06-15T07:25:38.379Z,20.53
2019-06-15T07:26:38.697Z,20.66
2019-06-15T07:27:38.357Z,20.78
2019-06-15T07:28:38.348Z,20.90
2019-06-15T07:29:38.359Z,20.94
2019-06-15T07:30:38.324Z,21.24
2019-06-15T07:31:38.319Z,21.90
2019-06-15T07:32:38.340Z,22.42
2019-06-15T07:33:38.294Z,22.63
2019-06-15T07:34:38.284Z,22.41
2019-06-15T07:35:38.268Z,22.30
2019-06-15T07:36:38.258Z,22.09
2019-06-15T07:37:38.261Z,22.01
2019-06-15T07:38:38.283Z,22.30
2019-06-15T07:39:38.225Z,22.42
2019-06-15T07:40:38.214Z,22.66
2019-06-15T07:41:38.203Z,22.69
2019-06-15T07:42:39.425Z,23.07
2019-06-15T07:43:38.182Z,23.56
2019-06-15T07:44:38.228Z,23.19
2019-06-15T07:45:38.186Z,23.23
2019-06-15T07:46:38.154Z,23.97
2019-06-15T07:47:38.161Z,24.05
2019-06-15T07:48:38.133Z,23.53
2019-06-15T07:49:38.118Z,22.94
2019-06-15T07:50:38.161Z,22.79
2019-06-15T07:51:38.097Z,22.69
2019-06-15T07:52:38.103Z,22.57
2019-06-15T07:53:38.078Z,22.67
2019-06-15T07:54:38.070Z,22.84
2019-06-15T07:55:38.054Z,22.72
2019-06-15T07:56:38.065Z,22.94
2019-06-15T07:57:38.041Z,22.88
2019-06-15T07:58:38.021Z,22.96
2019-06-15T07:59:38.011Z,22.88
2019-06-15T08:00:38.002Z,22.64
2019-06-15T08:01:37.990Z,22.23
2019-06-15T08:02:38.016Z,22.14
2019-06-15T08:03:38.004Z,22.06
2019-06-15T08:04:37.957Z,22.01
2019-06-15T08:05:37.947Z,21.98
2019-06-15T08:06:37.938Z,22.05
2019-06-15T08:07:37.939Z,22.08
2019-06-15T08:08:37.942Z,22.19
2019-06-15T08:09:37.904Z,22.42
2019-06-15T08:10:37.899Z,22.64
2019-06-15T08:11:37.886Z,22.88
2019-06-15T08:12:37.880Z,23.19
2019-06-15T08:13:37.861Z,23.67
2019-06-15T08:14:37.874Z,23.96
2019-06-15T08:15:37.849Z,24.06
2019-06-15T08:16:37.834Z,24.53
2019-06-15T08:17:37.831Z,25.09
2019-06-15T08:18:37.806Z,25.26
2019-06-15T08:19:37.798Z,25.69
2019-06-15T08:20:37.813Z,25.60
2019-06-15T08:21:37.783Z,25.82
2019-06-15T08:22:37.773Z,26.23
2019-06-15T08:23:37.751Z,26.73
2019-06-15T08:24:37.747Z,27.01
2019-06-15T08:25:37.730Z,27.20
2019-06-15T08:26:37.746Z,26.49
2019-06-15T08:27:37.720Z,25.66
2019-06-15T08:28:40.617Z,24.79
2019-06-15T08:29:37.699Z,24.12
2019-06-15T08:30:37.676Z,23.56
2019-06-15T08:31:37.668Z,23.15
2019-06-15T08:32:37.683Z,23.15
2019-06-15T08:33:37.646Z,23.90
2019-06-15T08:34:37.632Z,24.29
2019-06-15T08:35:37.623Z,24.49
2019-06-15T08:36:37.612Z,24.30
2019-06-15T08:37:37.609Z,24.77
2019-06-15T08:38:37.616Z,25.07
2019-06-15T08:39:37.581Z,24.77
2019-06-15T08:40:37.568Z,24.53
2019-06-15T08:41:37.557Z,24.00
2019-06-15T08:42:37.558Z,23.49
2019-06-15T08:43:37.535Z,23.01
2019-06-15T08:44:37.540Z,22.96
2019-06-15T08:45:37.514Z,23.18
2019-06-15T08:46:37.505Z,23.38
2019-06-15T08:47:37.523Z,23.35
2019-06-15T08:48:37.482Z,23.16
2019-06-15T08:49:37.472Z,22.86
2019-06-15T08:50:37.484Z,22.57
2019-06-15T08:51:37.451Z,22.26
2019-06-15T08:52:37.441Z,22.14
2019-06-15T08:53:37.438Z,21.99
2019-06-15T08:54:37.421Z,21.61
2019-06-15T08:55:37.409Z,21.43
2019-06-15T08:56:37.424Z,21.24
2019-06-15T08:57:40.316Z,21.33
2019-06-15T08:58:37.388Z,21.48
2019-06-15T08:59:37.364Z,21.67
2019-06-15T09:00:37.376Z,21.85
2019-06-15T09:01:37.387Z,22.01
2019-06-15T09:02:37.332Z,22.02
2019-06-15T09:03:37.331Z,21.86
2019-06-15T09:04:37.359Z,21.82
2019-06-15T09:05:37.298Z,21.68
2019-06-15T09:06:37.289Z,21.51
2019-06-15T09:07:37.304Z,21.26
2019-06-15T09:08:37.276Z,21.26
2019-06-15T09:09:37.257Z,21.15
2019-06-15T09:10:37.247Z,21.27
2019-06-15T09:11:37.235Z,21.36
2019-06-15T09:12:37.227Z,21.38
2019-06-15T09:13:37.268Z,21.34
2019-06-15T09:14:37.203Z,21.38
2019-06-15T09:15:37.190Z,21.56
2019-06-15T09:16:37.182Z,21.59
2019-06-15T09:17:37.169Z,21.56
2019-06-15T09:18:37.167Z,21.61
2019-06-15T09:19:37.178Z,21.93
2019-06-15T09:20:37.139Z,22.12
2019-06-15T09:21:37.127Z,22.39
2019-06-15T09:22:37.114Z,22.69
2019-06-15T09:23:37.114Z,23.29
2019-06-15T09:24:37.096Z,23.16
2019-06-15T09:25:37.104Z,23.00
2019-06-15T09:26:37.072Z,22.88
2019-06-15T09:27:37.062Z,22.89
2019-06-15T09:28:37.059Z,22.75
2019-06-15T09:29:37.039Z,22.63
2019-06-15T09:30:37.029Z,22.57
2019-06-15T09:31:37.044Z,22.31
2019-06-15T09:32:37.034Z,22.23
2019-06-15T09:33:37.007Z,21.99
2019-06-15T09:34:36.984Z,21.63
2019-06-15T09:35:36.975Z,21.63
2019-06-15T09:36:36.962Z,21.34
2019-06-15T09:37:36.976Z,21.37
2019-06-15T09:38:36.968Z,21.51
2019-06-15T09:39:36.935Z,21.28
2019-06-15T09:40:36.920Z,21.26
2019-06-15T09:41:36.951Z,21.18
2019-06-15T09:42:36.903Z,20.96
2019-06-15T09:43:36.930Z,20.76
2019-06-15T09:44:36.888Z,20.46
2019-06-15T09:45:36.867Z,20.54
2019-06-15T09:46:36.855Z,20.53
2019-06-15T09:47:36.844Z,20.56
2019-06-15T09:48:36.834Z,20.57
2019-06-15T09:49:36.862Z,20.63
2019-06-15T09:50:36.812Z,20.41
2019-06-15T09:51:36.805Z,20.44
2019-06-15T09:52:36.793Z,20.41
2019-06-15T09:53:36.783Z,20.53
2019-06-15T09:54:36.780Z,20.58
2019-06-15T09:55:36.784Z,20.54
2019-06-15T09:56:36.749Z,20.54
2019-06-15T09:57:36.739Z,20.31
2019-06-15T09:58:36.730Z,20.22
2019-06-15T09:59:38.478Z,20.10
2019-06-15T10:00:36.708Z,19.92
2019-06-15T10:01:36.720Z,20.00
2019-06-15T10:02:36.685Z,19.85
2019-06-15T10:03:36.673Z,19.92
2019-06-15T10:04:36.687Z,19.95
2019-06-15T10:05:36.651Z,19.92
2019-06-15T10:06:36.640Z,19.95
2019-06-15T10:07:36.678Z,19.90
2019-06-15T10:08:36.621Z,20.07
2019-06-15T10:09:36.626Z,20.19
2019-06-15T10:10:36.598Z,20.19
2019-06-15T10:11:36.585Z,20.26
2019-06-15T10:12:36.574Z,20.33
2019-06-15T10:13:36.591Z,20.48
2019-06-15T10:14:36.563Z,20.50
2019-06-15T10:15:36.543Z,20.64
2019-06-15T10:16:36.537Z,20.93
2019-06-15T10:17:36.523Z,21.05
2019-06-15T10:18:38.796Z,21.18
2019-06-15T10:19:36.545Z,21.28
2019-06-15T10:20:36.491Z,21.38
2019-06-15T10:21:36.478Z,21.37
2019-06-15T10:22:36.521Z,21.33
2019-06-15T10:23:36.457Z,21.24
2019-06-15T10:24:36.454Z,21.26
2019-06-15T10:25:36.467Z,21.09
2019-06-15T10:26:36.435Z,21.26
2019-06-15T10:27:36.412Z,21.34
2019-06-15T10:28:36.408Z,21.53
2019-06-15T10:29:42.023Z,21.56
2019-06-15T10:30:37.400Z,21.53
2019-06-15T10:31:36.368Z,21.74
2019-06-15T10:32:36.358Z,21.90
2019-06-15T10:33:36.352Z,22.01
2019-06-15T10:34:36.359Z,21.91
2019-06-15T10:35:36.326Z,21.77
2019-06-15T10:36:36.340Z,21.75
2019-06-15T10:37:36.314Z,21.77
2019-06-15T10:38:36.293Z,21.67
2019-06-15T10:39:36.293Z,21.48
2019-06-15T10:40:36.271Z,21.71
2019-06-15T10:41:36.262Z,21.82
2019-06-15T10:42:36.273Z,21.68
2019-06-15T10:43:36.239Z,21.71
2019-06-15T10:44:36.238Z,21.81
2019-06-15T10:45:36.225Z,21.98
2019-06-15T10:46:36.210Z,22.21
2019-06-15T10:47:36.201Z,22.49
2019-06-15T10:48:36.207Z,22.75
2019-06-15T10:49:36.186Z,23.18
2019-06-15T10:50:36.163Z,24.08
2019-06-15T10:51:36.153Z,24.93
2019-06-15T10:52:36.145Z,25.44
2019-06-15T10:53:36.133Z,25.54
2019-06-15T10:54:36.183Z,26.04
2019-06-15T10:55:36.112Z,26.21
2019-06-15T10:56:36.099Z,25.49
2019-06-15T10:57:36.091Z,24.67
2019-06-15T10:58:36.080Z,24.06
2019-06-15T10:59:36.333Z,23.82
2019-06-15T11:00:36.072Z,23.62
2019-06-15T11:01:36.053Z,23.44
2019-06-15T11:02:36.038Z,23.29
2019-06-15T11:03:36.025Z,23.22
2019-06-15T11:04:36.017Z,23.31
2019-06-15T11:05:36.016Z,23.38
2019-06-15T11:06:36.003Z,23.59
2019-06-15T11:07:35.984Z,23.67
2019-06-15T11:08:35.972Z,23.87
2019-06-15T11:09:35.966Z,23.96
2019-06-15T11:10:36.035Z,23.84
2019-06-15T11:11:35.945Z,23.82
2019-06-15T11:12:45.726Z,23.75
2019-06-15T11:13:36.920Z,24.02
2019-06-15T11:14:35.914Z,24.44
2019-06-15T11:15:35.907Z,24.61
2019-06-15T11:16:35.890Z,24.68
2019-06-15T11:17:35.883Z,25.27
2019-06-15T11:18:35.900Z,25.91
2019-06-15T11:19:35.856Z,26.66
2019-06-15T11:20:35.853Z,27.01
2019-06-15T11:21:35.839Z,27.21
2019-06-15T11:22:35.826Z,27.39
2019-06-15T11:23:35.814Z,27.88
2019-06-15T11:24:35.824Z,28.45
2019-06-15T11:25:35.803Z,28.61
2019-06-15T11:26:35.787Z,28.23
2019-06-15T11:27:35.774Z,27.86
2019-06-15T11:28:35.764Z,27.88
2019-06-15T11:29:35.755Z,27.72
2019-06-15T11:30:35.772Z,27.40
2019-06-15T11:31:35.731Z,27.03
2019-06-15T11:32:35.723Z,26.93
2019-06-15T11:33:35.717Z,26.56
2019-06-15T11:34:35.702Z,26.54
2019-06-15T11:35:35.708Z,26.86
2019-06-15T11:36:35.697Z,27.25
2019-06-15T11:37:35.672Z,27.62
2019-06-15T11:38:35.662Z,28.08
2019-06-15T11:39:35.651Z,28.42
2019-06-15T11:40:35.650Z,29.00
2019-06-15T11:41:35.637Z,28.76
2019-06-15T11:42:35.632Z,28.13
2019-06-15T11:43:35.610Z,27.90
2019-06-15T11:44:35.600Z,27.68
2019-06-15T11:45:35.604Z,27.25
2019-06-15T11:46:35.582Z,27.01
2019-06-15T11:47:35.571Z,27.18
2019-06-15T11:48:35.599Z,27.15
2019-06-15T11:49:35.549Z,27.45
2019-06-15T11:50:35.548Z,27.55
2019-06-15T11:51:35.529Z,27.68
2019-06-15T11:52:35.519Z,28.38
2019-06-15T11:53:35.508Z,28.74
2019-06-15T11:54:35.518Z,29.11
2019-06-15T11:55:39.572Z,29.47
2019-06-15T11:56:35.479Z,29.55
2019-06-15T11:57:35.469Z,29.74
2019-06-15T11:58:35.459Z,29.58
2019-06-15T11:59:35.449Z,29.57
2019-06-15T12:00:35.470Z,29.51
2019-06-15T12:01:35.430Z,29.45
2019-06-15T12:02:35.419Z,29.45
2019-06-15T12:03:35.410Z,29.44
2019-06-15T12:04:57.499Z,29.74
2019-06-15T12:05:36.403Z,29.91
2019-06-15T12:06:35.410Z,29.84
2019-06-15T12:07:35.381Z,29.92
2019-06-15T12:08:35.375Z,29.78
2019-06-15T12:09:35.356Z,29.86
2019-06-15T12:10:35.384Z,30.13
2019-06-15T12:11:35.332Z,30.60
2019-06-15T12:12:35.324Z,30.79
2019-06-15T12:13:35.314Z,30.21
2019-06-15T12:14:35.306Z,30.16
2019-06-15T12:15:35.305Z,29.36
2019-06-15T12:16:35.294Z,29.42
2019-06-15T12:17:35.282Z,29.23
2019-06-15T12:18:35.268Z,28.51
2019-06-15T12:19:35.254Z,28.03
2019-06-15T12:20:35.246Z,27.66
2019-06-15T12:21:35.261Z,27.50
2019-06-15T12:22:35.225Z,27.34
2019-06-15T12:23:35.214Z,27.27
2019-06-15T12:24:35.205Z,28.01
2019-06-15T12:25:35.205Z,28.91
2019-06-15T12:26:35.201Z,29.42
2019-06-15T12:27:35.182Z,29.05
2019-06-15T12:28:35.163Z,28.80
2019-06-15T12:29:35.154Z,28.25
2019-06-15T12:30:46.245Z,27.06
2019-06-15T12:31:36.189Z,26.81
2019-06-15T12:32:35.129Z,26.68
2019-06-15T12:33:35.121Z,26.01
2019-06-15T12:34:35.109Z,26.01
2019-06-15T12:35:35.096Z,25.94
2019-06-15T12:36:35.095Z,26.03
2019-06-15T12:37:35.079Z,26.13
2019-06-15T12:38:35.063Z,26.36
2019-06-15T12:39:41.396Z,26.79
2019-06-15T12:40:36.041Z,27.28
2019-06-15T12:41:35.046Z,27.59
2019-06-15T12:42:35.023Z,27.33
2019-06-15T12:43:35.018Z,27.08
2019-06-15T12:44:35.007Z,27.11
2019-06-15T12:45:35.018Z,26.94
2019-06-15T12:46:34.994Z,27.35
2019-06-15T12:47:34.974Z,27.63
2019-06-15T12:48:34.965Z,27.88
2019-06-15T12:49:34.954Z,27.81
2019-06-15T12:50:34.943Z,27.95
2019-06-15T12:51:34.948Z,27.95
2019-06-15T12:52:34.924Z,28.60
2019-06-15T12:53:34.919Z,28.95
2019-06-15T12:54:34.906Z,29.12
2019-06-15T12:55:34.892Z,29.03
2019-06-15T12:56:34.890Z,28.79
2019-06-15T12:57:34.882Z,28.64
2019-06-15T12:58:34.861Z,28.79
2019-06-15T12:59:34.851Z,29.17
2019-06-15T13:00:34.842Z,29.52
2019-06-15T13:01:34.846Z,29.17
2019-06-15T13:02:34.821Z,28.52
2019-06-15T13:03:34.829Z,28.45
2019-06-15T13:04:34.802Z,27.40
2019-06-15T13:05:34.792Z,27.49
2019-06-15T13:06:34.788Z,27.77
2019-06-15T13:07:34.772Z,27.96
2019-06-15T13:08:34.763Z,27.58
2019-06-15T13:09:34.753Z,26.72
2019-06-15T13:10:34.741Z,25.48
2019-06-15T13:11:34.746Z,25.16
2019-06-15T13:12:34.721Z,24.84
2019-06-15T13:13:34.726Z,24.45
2019-06-15T13:14:34.700Z,24.68
2019-06-15T13:15:34.697Z,24.86
2019-06-15T13:16:39.263Z,25.16
2019-06-15T13:17:35.666Z,25.56
2019-06-15T13:18:34.655Z,25.49
2019-06-15T13:19:35.475Z,25.66
2019-06-15T13:20:34.636Z,25.76
2019-06-15T13:21:34.651Z,25.79
2019-06-15T13:22:34.615Z,25.82
2019-06-15T13:23:34.609Z,25.59
2019-06-15T13:24:34.605Z,25.41
2019-06-15T13:25:34.580Z,25.14
2019-06-15T13:26:34.601Z,24.92
2019-06-15T13:27:34.560Z,24.41
2019-06-15T13:28:34.551Z,24.26
2019-06-15T13:29:34.570Z,24.44